sensor_id;sensor_type;location;lat;lon;timestamp;pressure;altitude;pressure_sealevel;temperature;humidity
65394;BME280;52002;49.760;6.512;2023-05-21T00:00:48;99888.98;;;15.08;62.18
65394;BME280;52002;49.760;6.512;2023-05-21T00:03:16;99887.85;;;15.05;62.35
65394;BME280;52002;49.760;6.512;2023-05-21T00:05:42;99883.40;;;15.03;62.43
65394;BME280;52002;49.760;6.512;2023-05-21T00:08:09;99881.36;;;15.02;62.61
65394;BME280;52002;49.760;6.512;2023-05-21T00:10:35;99879.09;;;15.03;62.58
65394;BME280;52002;49.760;6.512;2023-05-21T00:13:00;99878.56;;;15.03;62.55
65394;BME280;52002;49.760;6.512;2023-05-21T00:15:25;99874.05;;;15.05;62.58
65394;BME280;52002;49.760;6.512;2023-05-21T00:17:51;99871.36;;;15.07;62.61
65394;BME280;52002;49.760;6.512;2023-05-21T00:20:16;99868.77;;;15.09;62.70
65394;BME280;52002;49.760;6.512;2023-05-21T00:22:42;99867.80;;;15.10;62.83
65394;BME280;52002;49.760;6.512;2023-05-21T00:25:08;99863.13;;;15.12;63.00
65394;BME280;52002;49.760;6.512;2023-05-21T00:27:34;99857.98;;;15.11;62.90
65394;BME280;52002;49.760;6.512;2023-05-21T00:29:59;99855.23;;;15.10;62.89
65394;BME280;52002;49.760;6.512;2023-05-21T00:32:25;99853.59;;;15.09;62.78
65394;BME280;52002;49.760;6.512;2023-05-21T00:34:50;99849.98;;;15.07;62.94
65394;BME280;52002;49.760;6.512;2023-05-21T00:37:16;99846.49;;;15.06;63.01
65394;BME280;52002;49.760;6.512;2023-05-21T00:39:41;99843.87;;;15.04;63.06
65394;BME280;52002;49.760;6.512;2023-05-21T00:42:07;99841.02;;;15.02;63.17
65394;BME280;52002;49.760;6.512;2023-05-21T00:44:32;99835.35;;;14.98;63.18
65394;BME280;52002;49.760;6.512;2023-05-21T00:46:59;99833.03;;;14.95;63.36
65394;BME280;52002;49.760;6.512;2023-05-21T00:49:26;99834.41;;;14.92;63.44
65394;BME280;52002;49.760;6.512;2023-05-21T00:51:52;99837.96;;;14.91;63.58
65394;BME280;52002;49.760;6.512;2023-05-21T00:54:19;99839.69;;;14.88;63.62
65394;BME280;52002;49.760;6.512;2023-05-21T00:56:46;99833.50;;;14.86;63.72
65394;BME280;52002;49.760;6.512;2023-05-21T00:59:14;99831.89;;;14.86;63.84
65394;BME280;52002;49.760;6.512;2023-05-21T01:01:44;99830.52;;;14.85;63.86
65394;BME280;52002;49.760;6.512;2023-05-21T01:04:10;99827.14;;;14.84;63.96
65394;BME280;52002;49.760;6.512;2023-05-21T01:06:35;99826.36;;;14.82;64.09
65394;BME280;52002;49.760;6.512;2023-05-21T01:09:02;99829.17;;;14.79;64.27
65394;BME280;52002;49.760;6.512;2023-05-21T01:11:49;99830.70;;;14.77;64.24
65394;BME280;52002;49.760;6.512;2023-05-21T01:14:16;99833.20;;;14.74;64.29
65394;BME280;52002;49.760;6.512;2023-05-21T01:16:44;99829.95;;;14.69;64.37
65394;BME280;52002;49.760;6.512;2023-05-21T01:19:14;99831.14;;;14.66;64.62
65394;BME280;52002;49.760;6.512;2023-05-21T01:21:43;99831.06;;;14.63;64.68
65394;BME280;52002;49.760;6.512;2023-05-21T01:24:09;99824.63;;;14.63;64.74
65394;BME280;52002;49.760;6.512;2023-05-21T01:26:34;99816.68;;;14.62;64.71
65394;BME280;52002;49.760;6.512;2023-05-21T01:29:05;99818.50;;;14.60;64.77
65394;BME280;52002;49.760;6.512;2023-05-21T01:31:43;99816.65;;;14.59;64.85
65394;BME280;52002;49.760;6.512;2023-05-21T01:34:10;99820.38;;;14.61;64.99
65394;BME280;52002;49.760;6.512;2023-05-21T01:36:46;99819.41;;;14.62;65.07
65394;BME280;52002;49.760;6.512;2023-05-21T01:39:22;99814.77;;;14.62;65.05
65394;BME280;52002;49.760;6.512;2023-05-21T01:41:52;99814.17;;;14.62;65.18
65394;BME280;52002;49.760;6.512;2023-05-21T01:44:19;99814.23;;;14.63;65.15
65394;BME280;52002;49.760;6.512;2023-05-21T01:46:46;99813.41;;;14.64;65.15
65394;BME280;52002;49.760;6.512;2023-05-21T01:49:12;99811.69;;;14.65;65.22
65394;BME280;52002;49.760;6.512;2023-05-21T01:51:38;99807.90;;;14.64;65.28
65394;BME280;52002;49.760;6.512;2023-05-21T01:54:04;99812.20;;;14.62;65.33
65394;BME280;52002;49.760;6.512;2023-05-21T01:56:29;99812.77;;;14.62;65.48
65394;BME280;52002;49.760;6.512;2023-05-21T01:58:58;99814.95;;;14.62;65.38
65394;BME280;52002;49.760;6.512;2023-05-21T02:01:24;99813.19;;;14.60;65.47
65394;BME280;52002;49.760;6.512;2023-05-21T02:03:50;99807.27;;;14.56;65.57
65394;BME280;52002;49.760;6.512;2023-05-21T02:06:15;99805.09;;;14.55;65.68
65394;BME280;52002;49.760;6.512;2023-05-21T02:08:41;99801.77;;;14.54;65.66
65394;BME280;52002;49.760;6.512;2023-05-21T02:11:06;99802.65;;;14.54;65.69
65394;BME280;52002;49.760;6.512;2023-05-21T02:13:31;99804.79;;;14.53;65.74
65394;BME280;52002;49.760;6.512;2023-05-21T02:15:58;99800.55;;;14.54;66.04
65394;BME280;52002;49.760;6.512;2023-05-21T02:18:23;99799.66;;;14.55;66.01
65394;BME280;52002;49.760;6.512;2023-05-21T02:20:48;99803.35;;;14.58;66.04
65394;BME280;52002;49.760;6.512;2023-05-21T02:23:14;99801.48;;;14.59;66.04
65394;BME280;52002;49.760;6.512;2023-05-21T02:25:39;99801.10;;;14.60;66.00
65394;BME280;52002;49.760;6.512;2023-05-21T02:28:05;99795.90;;;14.61;65.98
65394;BME280;52002;49.760;6.512;2023-05-21T02:30:31;99792.67;;;14.61;66.03
65394;BME280;52002;49.760;6.512;2023-05-21T02:32:56;99793.05;;;14.61;66.05
65394;BME280;52002;49.760;6.512;2023-05-21T02:35:23;99788.11;;;14.58;66.14
65394;BME280;52002;49.760;6.512;2023-05-21T02:37:49;99789.73;;;14.55;66.30
65394;BME280;52002;49.760;6.512;2023-05-21T02:40:15;99786.20;;;14.51;66.32
65394;BME280;52002;49.760;6.512;2023-05-21T02:42:40;99787.25;;;14.50;66.38
65394;BME280;52002;49.760;6.512;2023-05-21T02:45:07;99787.42;;;14.50;66.40
65394;BME280;52002;49.760;6.512;2023-05-21T02:47:33;99785.42;;;14.52;66.51
65394;BME280;52002;49.760;6.512;2023-05-21T02:49:59;99784.85;;;14.54;66.67
65394;BME280;52002;49.760;6.512;2023-05-21T02:52:26;99788.31;;;14.56;66.73
65394;BME280;52002;49.760;6.512;2023-05-21T02:54:52;99786.03;;;14.57;66.63
65394;BME280;52002;49.760;6.512;2023-05-21T02:57:17;99786.77;;;14.57;66.64
65394;BME280;52002;49.760;6.512;2023-05-21T02:59:43;99785.89;;;14.55;66.72
65394;BME280;52002;49.760;6.512;2023-05-21T03:02:09;99784.58;;;14.54;66.82
65394;BME280;52002;49.760;6.512;2023-05-21T03:04:35;99782.83;;;14.52;66.85
65394;BME280;52002;49.760;6.512;2023-05-21T03:07:11;99784.05;;;14.51;66.93
65394;BME280;52002;49.760;6.512;2023-05-21T03:09:38;99786.52;;;14.50;67.01
65394;BME280;52002;49.760;6.512;2023-05-21T03:12:04;99786.00;;;14.48;67.02
65394;BME280;52002;49.760;6.512;2023-05-21T03:14:29;99784.58;;;14.46;66.94
65394;BME280;52002;49.760;6.512;2023-05-21T03:16:55;99780.59;;;14.45;67.07
65394;BME280;52002;49.760;6.512;2023-05-21T03:19:20;99774.45;;;14.46;67.11
65394;BME280;52002;49.760;6.512;2023-05-21T03:21:46;99775.45;;;14.46;67.19
65394;BME280;52002;49.760;6.512;2023-05-21T03:24:13;99777.06;;;14.46;67.30
65394;BME280;52002;49.760;6.512;2023-05-21T03:26:39;99776.59;;;14.47;67.39
65394;BME280;52002;49.760;6.512;2023-05-21T03:29:04;99778.61;;;14.47;67.46
65394;BME280;52002;49.760;6.512;2023-05-21T03:31:30;99780.08;;;14.43;67.46
65394;BME280;52002;49.760;6.512;2023-05-21T03:33:55;99779.55;;;14.43;67.62
65394;BME280;52002;49.760;6.512;2023-05-21T03:36:21;99778.21;;;14.42;67.54
65394;BME280;52002;49.760;6.512;2023-05-21T03:38:46;99780.19;;;14.38;67.57
65394;BME280;52002;49.760;6.512;2023-05-21T03:41:12;99775.80;;;14.36;67.63
65394;BME280;52002;49.760;6.512;2023-05-21T03:43:37;99774.55;;;14.31;67.65
65394;BME280;52002;49.760;6.512;2023-05-21T03:46:02;99775.04;;;14.28;67.79
65394;BME280;52002;49.760;6.512;2023-05-21T03:48:28;99775.67;;;14.29;67.83
65394;BME280;52002;49.760;6.512;2023-05-21T03:50:53;99775.08;;;14.30;67.97
65394;BME280;52002;49.760;6.512;2023-05-21T03:53:19;99774.45;;;14.30;67.87
65394;BME280;52002;49.760;6.512;2023-05-21T03:55:45;99773.02;;;14.29;68.14
65394;BME280;52002;49.760;6.512;2023-05-21T03:58:11;99771.83;;;14.28;68.06
65394;BME280;52002;49.760;6.512;2023-05-21T04:00:36;99774.33;;;14.28;68.20
65394;BME280;52002;49.760;6.512;2023-05-21T04:03:05;99770.91;;;14.27;68.19
65394;BME280;52002;49.760;6.512;2023-05-21T04:05:31;99777.39;;;14.25;68.18
65394;BME280;52002;49.760;6.512;2023-05-21T04:07:57;99777.28;;;14.24;68.33
65394;BME280;52002;49.760;6.512;2023-05-21T04:10:23;99780.41;;;14.23;68.45
65394;BME280;52002;49.760;6.512;2023-05-21T04:12:48;99781.01;;;14.23;68.45
65394;BME280;52002;49.760;6.512;2023-05-21T04:15:17;99781.67;;;14.21;68.53
65394;BME280;52002;49.760;6.512;2023-05-21T04:17:44;99779.90;;;14.23;68.72
65394;BME280;52002;49.760;6.512;2023-05-21T04:20:12;99781.12;;;14.25;68.76
65394;BME280;52002;49.760;6.512;2023-05-21T04:22:44;99779.54;;;14.25;68.90
65394;BME280;52002;49.760;6.512;2023-05-21T04:25:09;99777.02;;;14.28;68.84
65394;BME280;52002;49.760;6.512;2023-05-21T04:27:35;99779.88;;;14.33;68.78
65394;BME280;52002;49.760;6.512;2023-05-21T04:30:02;99778.20;;;14.37;68.68
65394;BME280;52002;49.760;6.512;2023-05-21T04:32:28;99776.76;;;14.42;68.52
65394;BME280;52002;49.760;6.512;2023-05-21T04:34:56;99778.81;;;14.48;68.52
65394;BME280;52002;49.760;6.512;2023-05-21T04:37:21;99778.84;;;14.56;68.37
65394;BME280;52002;49.760;6.512;2023-05-21T04:39:49;99782.34;;;14.65;68.26
65394;BME280;52002;49.760;6.512;2023-05-21T04:42:14;99784.20;;;14.73;68.16
65394;BME280;52002;49.760;6.512;2023-05-21T04:44:40;99780.94;;;14.80;67.95
65394;BME280;52002;49.760;6.512;2023-05-21T04:47:08;99783.02;;;14.87;68.01
65394;BME280;52002;49.760;6.512;2023-05-21T04:49:34;99784.01;;;14.96;67.71
65394;BME280;52002;49.760;6.512;2023-05-21T04:52:01;99783.52;;;15.05;67.62
65394;BME280;52002;49.760;6.512;2023-05-21T04:54:27;99786.45;;;15.18;67.22
65394;BME280;52002;49.760;6.512;2023-05-21T04:56:53;99782.70;;;15.32;67.08
65394;BME280;52002;49.760;6.512;2023-05-21T04:59:19;99784.23;;;15.46;66.79
65394;BME280;52002;49.760;6.512;2023-05-21T05:01:45;99783.95;;;15.61;66.51
65394;BME280;52002;49.760;6.512;2023-05-21T05:04:11;99781.16;;;15.73;66.22
65394;BME280;52002;49.760;6.512;2023-05-21T05:06:36;99785.96;;;15.86;65.94
65394;BME280;52002;49.760;6.512;2023-05-21T05:09:02;99784.89;;;16.00;65.74
65394;BME280;52002;49.760;6.512;2023-05-21T05:11:28;99785.81;;;16.12;65.35
65394;BME280;52002;49.760;6.512;2023-05-21T05:13:54;99786.16;;;16.25;65.19
65394;BME280;52002;49.760;6.512;2023-05-21T05:16:19;99787.38;;;16.35;64.87
65394;BME280;52002;49.760;6.512;2023-05-21T05:18:50;99790.84;;;16.43;64.64
65394;BME280;52002;49.760;6.512;2023-05-21T05:21:16;99791.46;;;16.49;64.40
65394;BME280;52002;49.760;6.512;2023-05-21T05:23:42;99791.58;;;16.54;64.16
65394;BME280;52002;49.760;6.512;2023-05-21T05:26:07;99789.94;;;16.61;63.90
65394;BME280;52002;49.760;6.512;2023-05-21T05:28:33;99791.30;;;16.71;63.82
65394;BME280;52002;49.760;6.512;2023-05-21T05:30:58;99788.56;;;16.83;63.48
65394;BME280;52002;49.760;6.512;2023-05-21T05:33:23;99785.14;;;16.92;63.27
65394;BME280;52002;49.760;6.512;2023-05-21T05:35:49;99781.33;;;16.99;63.27
65394;BME280;52002;49.760;6.512;2023-05-21T05:38:14;99785.16;;;17.06;62.90
65394;BME280;52002;49.760;6.512;2023-05-21T05:40:41;99782.17;;;17.14;62.66
65394;BME280;52002;49.760;6.512;2023-05-21T05:43:06;99785.94;;;17.22;62.54
65394;BME280;52002;49.760;6.512;2023-05-21T05:45:31;99785.98;;;17.26;62.47
65394;BME280;52002;49.760;6.512;2023-05-21T05:47:57;99785.15;;;17.28;62.32
65394;BME280;52002;49.760;6.512;2023-05-21T05:50:22;99783.19;;;17.36;62.11
65394;BME280;52002;49.760;6.512;2023-05-21T05:52:47;99785.98;;;17.44;62.01
65394;BME280;52002;49.760;6.512;2023-05-21T05:55:13;99787.41;;;17.55;61.75
65394;BME280;52002;49.760;6.512;2023-05-21T05:57:38;99787.33;;;17.75;61.43
65394;BME280;52002;49.760;6.512;2023-05-21T06:00:04;99788.02;;;18.09;60.73
65394;BME280;52002;49.760;6.512;2023-05-21T06:02:29;99783.08;;;18.69;60.16
65394;BME280;52002;49.760;6.512;2023-05-21T06:04:55;99781.22;;;19.13;59.07
65394;BME280;52002;49.760;6.512;2023-05-21T06:07:20;99779.80;;;19.34;58.56
65394;BME280;52002;49.760;6.512;2023-05-21T06:09:46;99773.93;;;19.42;58.17
65394;BME280;52002;49.760;6.512;2023-05-21T06:12:11;99780.63;;;19.50;57.65
65394;BME280;52002;49.760;6.512;2023-05-21T06:14:40;99780.70;;;19.68;57.11
65394;BME280;52002;49.760;6.512;2023-05-21T06:17:06;99783.19;;;20.25;56.26
65394;BME280;52002;49.760;6.512;2023-05-21T06:19:31;99792.03;;;21.21;54.59
65394;BME280;52002;49.760;6.512;2023-05-21T06:21:56;99793.77;;;21.49;53.79
65394;BME280;52002;49.760;6.512;2023-05-21T06:24:22;99794.16;;;21.88;52.89
65394;BME280;52002;49.760;6.512;2023-05-21T06:26:47;99795.31;;;21.85;52.37
65394;BME280;52002;49.760;6.512;2023-05-21T06:29:12;99796.51;;;22.05;51.48
65394;BME280;52002;49.760;6.512;2023-05-21T06:31:38;99792.48;;;22.58;50.78
65394;BME280;52002;49.760;6.512;2023-05-21T06:34:03;99797.23;;;23.99;48.97
65394;BME280;52002;49.760;6.512;2023-05-21T06:36:28;99799.47;;;25.84;46.21
65394;BME280;52002;49.760;6.512;2023-05-21T06:38:57;99797.73;;;26.34;44.81
65394;BME280;52002;49.760;6.512;2023-05-21T06:41:23;99796.86;;;26.97;43.23
65394;BME280;52002;49.760;6.512;2023-05-21T06:43:48;99795.73;;;27.87;42.26
65394;BME280;52002;49.760;6.512;2023-05-21T06:46:13;99798.34;;;29.33;40.04
65394;BME280;52002;49.760;6.512;2023-05-21T06:48:39;99798.06;;;29.40;39.30
65394;BME280;52002;49.760;6.512;2023-05-21T06:51:04;99796.98;;;29.53;38.34
65394;BME280;52002;49.760;6.512;2023-05-21T06:53:30;99803.45;;;29.31;38.28
65394;BME280;52002;49.760;6.512;2023-05-21T06:55:55;99804.64;;;30.47;37.11
65394;BME280;52002;49.760;6.512;2023-05-21T06:58:20;99807.38;;;31.69;35.05
65394;BME280;52002;49.760;6.512;2023-05-21T07:00:46;99804.65;;;31.98;34.65
65394;BME280;52002;49.760;6.512;2023-05-21T07:03:12;99807.23;;;32.31;33.72
65394;BME280;52002;49.760;6.512;2023-05-21T07:05:38;99807.57;;;33.68;32.40
65394;BME280;52002;49.760;6.512;2023-05-21T07:08:03;99812.59;;;35.16;30.80
65394;BME280;52002;49.760;6.512;2023-05-21T07:10:28;99809.63;;;34.92;30.10
65394;BME280;52002;49.760;6.512;2023-05-21T07:12:54;99810.55;;;34.60;29.55
65394;BME280;52002;49.760;6.512;2023-05-21T07:15:19;99812.27;;;34.63;29.61
65394;BME280;52002;49.760;6.512;2023-05-21T07:17:45;99812.44;;;35.44;28.51
65394;BME280;52002;49.760;6.512;2023-05-21T07:20:11;99817.52;;;34.86;28.40
65394;BME280;52002;49.760;6.512;2023-05-21T07:22:37;99813.77;;;34.20;28.85
65394;BME280;52002;49.760;6.512;2023-05-21T07:25:03;99818.69;;;34.32;28.82
65394;BME280;52002;49.760;6.512;2023-05-21T07:27:29;99817.16;;;33.99;29.09
65394;BME280;52002;49.760;6.512;2023-05-21T07:29:54;99814.77;;;33.46;29.59
65394;BME280;52002;49.760;6.512;2023-05-21T07:32:20;99813.70;;;33.98;29.18
65394;BME280;52002;49.760;6.512;2023-05-21T07:34:45;99815.08;;;34.35;28.42
65394;BME280;52002;49.760;6.512;2023-05-21T07:37:11;99817.21;;;32.87;29.29
65394;BME280;52002;49.760;6.512;2023-05-21T07:39:38;99818.81;;;32.37;30.05
65394;BME280;52002;49.760;6.512;2023-05-21T07:42:04;99816.83;;;33.92;29.02
65394;BME280;52002;49.760;6.512;2023-05-21T07:44:30;99817.27;;;35.63;27.60
65394;BME280;52002;49.760;6.512;2023-05-21T07:46:56;99808.74;;;36.87;26.46
65394;BME280;52002;49.760;6.512;2023-05-21T07:49:21;99807.05;;;37.89;25.60
65394;BME280;52002;49.760;6.512;2023-05-21T07:51:47;99813.33;;;38.77;24.42
65394;BME280;52002;49.760;6.512;2023-05-21T07:54:12;99810.31;;;39.26;23.97
65394;BME280;52002;49.760;6.512;2023-05-21T07:56:37;99802.90;;;39.61;23.40
65394;BME280;52002;49.760;6.512;2023-05-21T07:59:03;99797.69;;;39.87;23.20
65394;BME280;52002;49.760;6.512;2023-05-21T08:01:28;99788.52;;;40.15;22.70
65394;BME280;52002;49.760;6.512;2023-05-21T08:03:54;99786.62;;;40.37;22.29
65394;BME280;52002;49.760;6.512;2023-05-21T08:06:20;99785.15;;;40.58;22.10
65394;BME280;52002;49.760;6.512;2023-05-21T08:08:46;99787.32;;;40.91;21.80
65394;BME280;52002;49.760;6.512;2023-05-21T08:11:12;99788.15;;;41.18;21.44
65394;BME280;52002;49.760;6.512;2023-05-21T08:13:37;99787.23;;;41.12;21.33
65394;BME280;52002;49.760;6.512;2023-05-21T08:16:04;99787.52;;;41.33;21.17
65394;BME280;52002;49.760;6.512;2023-05-21T08:18:30;99782.27;;;41.49;20.97
65394;BME280;52002;49.760;6.512;2023-05-21T08:20:55;99780.09;;;41.63;20.78
65394;BME280;52002;49.760;6.512;2023-05-21T08:23:20;99777.59;;;41.78;20.59
65394;BME280;52002;49.760;6.512;2023-05-21T08:25:46;99775.51;;;41.70;20.44
65394;BME280;52002;49.760;6.512;2023-05-21T08:28:11;99774.04;;;41.51;20.38
65394;BME280;52002;49.760;6.512;2023-05-21T08:30:36;99772.02;;;41.23;20.70
65394;BME280;52002;49.760;6.512;2023-05-21T08:33:02;99769.64;;;41.21;20.85
65394;BME280;52002;49.760;6.512;2023-05-21T08:35:27;99763.64;;;40.95;20.83
65394;BME280;52002;49.760;6.512;2023-05-21T08:37:53;99758.95;;;40.87;21.35
65394;BME280;52002;49.760;6.512;2023-05-21T08:40:18;99759.81;;;40.69;21.43
65394;BME280;52002;49.760;6.512;2023-05-21T08:42:48;99752.51;;;40.13;21.51
65394;BME280;52002;49.760;6.512;2023-05-21T08:45:18;99755.12;;;39.32;22.04
65394;BME280;52002;49.760;6.512;2023-05-21T08:47:45;99756.61;;;37.55;23.02
65394;BME280;52002;49.760;6.512;2023-05-21T08:50:15;99751.84;;;35.57;24.66
65394;BME280;52002;49.760;6.512;2023-05-21T08:52:43;99752.42;;;33.94;26.40
65394;BME280;52002;49.760;6.512;2023-05-21T08:55:09;99740.54;;;32.58;27.94
65394;BME280;52002;49.760;6.512;2023-05-21T08:57:35;99746.36;;;31.48;29.57
65394;BME280;52002;49.760;6.512;2023-05-21T09:00:01;99739.57;;;30.43;30.54
65394;BME280;52002;49.760;6.512;2023-05-21T09:02:32;99738.42;;;29.60;32.03
65394;BME280;52002;49.760;6.512;2023-05-21T09:04:58;99737.02;;;29.08;32.92
65394;BME280;52002;49.760;6.512;2023-05-21T09:07:28;99729.67;;;28.74;33.88
65394;BME280;52002;49.760;6.512;2023-05-21T09:09:56;99731.17;;;28.40;34.78
65394;BME280;52002;49.760;6.512;2023-05-21T09:12:24;99736.48;;;28.00;35.17
65394;BME280;52002;49.760;6.512;2023-05-21T09:14:51;99734.40;;;27.58;36.09
65394;BME280;52002;49.760;6.512;2023-05-21T09:17:17;99724.73;;;27.28;36.83
65394;BME280;52002;49.760;6.512;2023-05-21T09:22:31;99719.27;;;26.45;38.17
65394;BME280;52002;49.760;6.512;2023-05-21T09:24:57;99728.23;;;26.01;38.76
65394;BME280;52002;49.760;6.512;2023-05-21T09:27:23;99726.85;;;25.68;39.45
65394;BME280;52002;49.760;6.512;2023-05-21T09:29:51;99721.30;;;25.40;40.00
65394;BME280;52002;49.760;6.512;2023-05-21T09:32:17;99721.63;;;25.29;40.71
65394;BME280;52002;49.760;6.512;2023-05-21T09:34:43;99722.39;;;25.30;41.11
65394;BME280;52002;49.760;6.512;2023-05-21T09:37:08;99719.78;;;25.25;41.10
65394;BME280;52002;49.760;6.512;2023-05-21T09:39:35;99716.55;;;25.22;41.49
65394;BME280;52002;49.760;6.512;2023-05-21T09:42:00;99719.02;;;25.14;41.69
65394;BME280;52002;49.760;6.512;2023-05-21T09:44:26;99719.48;;;25.10;42.06
65394;BME280;52002;49.760;6.512;2023-05-21T09:46:56;99715.14;;;25.04;42.29
65394;BME280;52002;49.760;6.512;2023-05-21T09:49:25;99709.98;;;25.08;42.73
65394;BME280;52002;49.760;6.512;2023-05-21T09:51:54;99706.64;;;25.11;42.63
65394;BME280;52002;49.760;6.512;2023-05-21T09:54:20;99706.69;;;25.04;42.67
65394;BME280;52002;49.760;6.512;2023-05-21T09:56:45;99703.62;;;24.91;42.99
65394;BME280;52002;49.760;6.512;2023-05-21T09:59:11;99703.92;;;24.88;43.34
65394;BME280;52002;49.760;6.512;2023-05-21T10:01:37;99702.67;;;24.96;43.34
65394;BME280;52002;49.760;6.512;2023-05-21T10:04:06;99697.09;;;25.03;43.63
65394;BME280;52002;49.760;6.512;2023-05-21T10:06:41;99693.63;;;25.07;43.52
65394;BME280;52002;49.760;6.512;2023-05-21T10:09:09;99690.03;;;25.08;43.51
65394;BME280;52002;49.760;6.512;2023-05-21T10:11:36;99682.81;;;25.05;43.67
65394;BME280;52002;49.760;6.512;2023-05-21T10:16:27;99685.02;;;25.04;43.69
65394;BME280;52002;49.760;6.512;2023-05-21T10:18:54;99681.99;;;24.93;43.71
65394;BME280;52002;49.760;6.512;2023-05-21T10:21:27;99682.70;;;24.91;44.11
65394;BME280;52002;49.760;6.512;2023-05-21T10:23:54;99682.58;;;24.89;44.18
65394;BME280;52002;49.760;6.512;2023-05-21T10:26:22;99675.42;;;24.83;44.01
65394;BME280;52002;49.760;6.512;2023-05-21T10:28:49;99681.43;;;24.78;44.58
65394;BME280;52002;49.760;6.512;2023-05-21T10:31:15;99678.41;;;24.71;44.49
65394;BME280;52002;49.760;6.512;2023-05-21T10:33:42;99670.90;;;24.53;44.41
65394;BME280;52002;49.760;6.512;2023-05-21T10:36:07;99666.06;;;24.43;44.67
65394;BME280;52002;49.760;6.512;2023-05-21T10:38:33;99669.04;;;24.49;44.96
65394;BME280;52002;49.760;6.512;2023-05-21T10:41:00;99666.83;;;24.56;44.88
65394;BME280;52002;49.760;6.512;2023-05-21T10:46:18;99662.20;;;24.71;44.81
65394;BME280;52002;49.760;6.512;2023-05-21T10:54:26;99653.73;;;24.98;44.80
65394;BME280;52002;49.760;6.512;2023-05-21T10:59:52;99651.17;;;25.20;44.13
65394;BME280;52002;49.760;6.512;2023-05-21T11:02:18;99646.70;;;25.23;44.20
65394;BME280;52002;49.760;6.512;2023-05-21T11:04:45;99647.58;;;25.25;44.07
65394;BME280;52002;49.760;6.512;2023-05-21T11:07:14;99651.09;;;25.21;43.75
65394;BME280;52002;49.760;6.512;2023-05-21T11:09:39;99645.80;;;25.19;43.67
65394;BME280;52002;49.760;6.512;2023-05-21T11:12:05;99644.29;;;25.17;44.04
65394;BME280;52002;49.760;6.512;2023-05-21T11:14:38;99643.25;;;25.14;43.97
65394;BME280;52002;49.760;6.512;2023-05-21T11:19:43;99641.81;;;25.05;43.80
65394;BME280;52002;49.760;6.512;2023-05-21T11:22:26;99640.36;;;24.95;43.97
65394;BME280;52002;49.760;6.512;2023-05-21T11:24:53;99634.78;;;24.85;44.18
65394;BME280;52002;49.760;6.512;2023-05-21T11:29:58;99622.61;;;24.95;44.38
65394;BME280;52002;49.760;6.512;2023-05-21T11:32:23;99625.88;;;25.03;44.13
65394;BME280;52002;49.760;6.512;2023-05-21T11:34:49;99622.89;;;25.10;44.05
65394;BME280;52002;49.760;6.512;2023-05-21T11:39:41;99621.75;;;25.35;43.99
65394;BME280;52002;49.760;6.512;2023-05-21T11:42:07;99622.80;;;25.46;43.77
65394;BME280;52002;49.760;6.512;2023-05-21T11:44:42;99615.98;;;25.55;43.74
65394;BME280;52002;49.760;6.512;2023-05-21T11:47:12;99613.17;;;25.67;43.47
65394;BME280;52002;49.760;6.512;2023-05-21T11:49:38;99612.27;;;25.77;42.76
65394;BME280;52002;49.760;6.512;2023-05-21T11:52:08;99613.60;;;25.85;42.82
65394;BME280;52002;49.760;6.512;2023-05-21T11:54:40;99618.27;;;25.92;42.76
65394;BME280;52002;49.760;6.512;2023-05-21T11:57:07;99612.58;;;25.92;42.37
65394;BME280;52002;49.760;6.512;2023-05-21T11:59:33;99612.27;;;25.93;42.00
65394;BME280;52002;49.760;6.512;2023-05-21T12:01:59;99614.83;;;25.93;42.15
65394;BME280;52002;49.760;6.512;2023-05-21T12:04:33;99613.76;;;25.92;41.89
65394;BME280;52002;49.760;6.512;2023-05-21T12:07:05;99610.63;;;25.91;42.19
65394;BME280;52002;49.760;6.512;2023-05-21T12:09:47;99605.54;;;25.87;42.30
65394;BME280;52002;49.760;6.512;2023-05-21T12:12:15;99604.50;;;25.90;42.10
65394;BME280;52002;49.760;6.512;2023-05-21T12:14:45;99606.02;;;25.97;42.34
65394;BME280;52002;49.760;6.512;2023-05-21T12:17:14;99614.91;;;26.07;42.18
65394;BME280;52002;49.760;6.512;2023-05-21T12:19:41;99616.06;;;26.18;41.59
65394;BME280;52002;49.760;6.512;2023-05-21T12:22:07;99617.55;;;26.22;40.82
65394;BME280;52002;49.760;6.512;2023-05-21T12:24:34;99615.15;;;26.15;40.46
65394;BME280;52002;49.760;6.512;2023-05-21T12:27:02;99609.54;;;26.14;41.01
65394;BME280;52002;49.760;6.512;2023-05-21T12:29:36;99612.22;;;26.23;40.75
65394;BME280;52002;49.760;6.512;2023-05-21T12:32:04;99612.09;;;26.30;40.47
65394;BME280;52002;49.760;6.512;2023-05-21T12:37:06;99617.00;;;26.33;39.98
65394;BME280;52002;49.760;6.512;2023-05-21T12:39:58;99616.52;;;26.34;39.53
65394;BME280;52002;49.760;6.512;2023-05-21T12:42:32;99611.78;;;26.31;39.35
65394;BME280;52002;49.760;6.512;2023-05-21T12:45:05;99608.27;;;26.34;38.50
65394;BME280;52002;49.760;6.512;2023-05-21T12:47:31;99611.42;;;26.34;38.97
65394;BME280;52002;49.760;6.512;2023-05-21T12:49:58;99611.46;;;26.28;38.63
65394;BME280;52002;49.760;6.512;2023-05-21T12:52:24;99611.46;;;26.21;38.65
65394;BME280;52002;49.760;6.512;2023-05-21T12:54:52;99614.56;;;26.16;38.60
65394;BME280;52002;49.760;6.512;2023-05-21T12:57:20;99614.31;;;26.14;38.49
65394;BME280;52002;49.760;6.512;2023-05-21T12:59:56;99619.05;;;26.08;38.45
65394;BME280;52002;49.760;6.512;2023-05-21T13:02:32;99618.79;;;26.01;38.12
65394;BME280;52002;49.760;6.512;2023-05-21T13:04:59;99618.41;;;25.99;37.93
65394;BME280;52002;49.760;6.512;2023-05-21T13:07:27;99615.16;;;25.96;38.11
65394;BME280;52002;49.760;6.512;2023-05-21T13:09:54;99609.77;;;26.00;38.16
65394;BME280;52002;49.760;6.512;2023-05-21T13:12:21;99614.73;;;26.02;38.37
65394;BME280;52002;49.760;6.512;2023-05-21T13:14:48;99609.48;;;26.01;38.94
65394;BME280;52002;49.760;6.512;2023-05-21T13:17:14;99608.09;;;26.07;39.27
65394;BME280;52002;49.760;6.512;2023-05-21T13:19:40;99600.16;;;26.15;39.70
65394;BME280;52002;49.760;6.512;2023-05-21T13:22:05;99605.34;;;26.25;39.72
65394;BME280;52002;49.760;6.512;2023-05-21T13:24:31;99610.48;;;26.28;38.95